Time;durP1;ratioP1;P1;durP2;ratioP2;P2;SDS_P1;SDS_P2;PMS_P1;PMS_P2;Temp;Humidity;BMP_temperature;BMP_pressure;BME280_temperature;BME280_humidity;BME280_pressure;Samples;Min_cycle;Max_cycle;Signal;HPM_P1;HPM_P2
2024/04/11 05:00:54;;;;;;;7.53;2.97;;;6.20;88.40;;;;;;4967261;22;20044;-78
2024/04/11 05:02:55;;;;;;;9.70;3.15;;;6.20;88.50;;;;;;4369656;27;20017;-78
2024/04/11 05:04:59;;;;;;;7.75;5.22;;;6.20;88.50;;;;;;4369663;27;20403;-78
2024/04/11 05:07:00;;;;;;;13.63;3.33;;;6.20;88.20;;;;;;4369460;27;20443;-78
2024/04/11 05:09:10;;;;;;;8.23;2.90;;;6.30;88.30;;;;;;4369630;27;20411;-79
2024/04/11 05:11:11;;;;;;;12.38;4.22;;;6.20;88.50;;;;;;4369404;27;20014;-78
2024/04/11 05:13:18;;;;;;;7.43;3.35;;;6.20;88.40;;;;;;4369572;27;20034;-79
2024/04/11 05:15:19;;;;;;;7.82;3.30;;;6.20;88.20;;;;;;4369577;27;20081;-79
2024/04/11 05:17:26;;;;;;;10.23;3.42;;;6.30;88.10;;;;;;4368952;27;20010;-79
2024/04/11 05:19:27;;;;;;;38.30;34.95;;;6.30;88.00;;;;;;4369568;27;20013;-79
2024/04/11 05:21:32;;;;;;;7.03;3.10;;;6.40;87.70;;;;;;4369371;27;19998;-79
2024/04/11 05:23:33;;;;;;;7.60;2.95;;;6.40;87.50;;;;;;4369156;27;20010;-79
2024/04/11 05:25:37;;;;;;;9.40;3.17;;;6.40;87.70;;;;;;4369456;27;20388;-79
2024/04/11 05:27:38;;;;;;;14.18;10.77;;;6.40;87.70;;;;;;4370108;27;20428;-80
2024/04/11 05:29:41;;;;;;;42.03;37.92;;;6.40;87.90;;;;;;4371594;27;20002;-80
2024/04/11 05:31:42;;;;;;;7.10;2.92;;;6.40;87.90;;;;;;4370454;27;20003;-79
2024/04/11 05:33:53;;;;;;;9.15;3.20;;;6.30;88.20;;;;;;4369929;27;20003;-79
2024/04/11 05:35:54;;;;;;;7.15;2.85;;;6.30;88.20;;;;;;4369821;27;20443;-80
2024/04/11 05:37:57;;;;;;;103.13;95.88;;;6.30;88.10;;;;;;4368817;27;20076;-80
2024/04/11 05:39:59;;;;;;;8.75;2.83;;;6.30;88.30;;;;;;4369082;27;19999;-79
2024/04/11 05:42:03;;;;;;;281.27;258.73;;;6.30;88.50;;;;;;4369156;27;20158;-79
2024/04/11 05:44:06;;;;;;;7.50;2.95;;;6.20;88.60;;;;;;4369061;27;20436;-80
2024/04/11 05:46:13;;;;;;;7.57;3.08;;;6.10;89.00;;;;;;4369329;27;20014;-79
2024/04/11 05:48:14;;;;;;;10.52;3.38;;;6.20;89.10;;;;;;4369018;27;20006;-79
2024/04/11 05:50:20;;;;;;;9.25;3.28;;;6.20;89.10;;;;;;4369282;27;20013;-79
2024/04/11 05:52:22;;;;;;;10.40;3.58;;;6.30;89.10;;;;;;4369136;27;19998;-78
2024/04/11 05:54:25;;;;;;;5.90;3.25;;;6.40;89.90;;;;;;4368088;27;20037;-79
2024/04/11 05:56:26;;;;;;;6.35;3.10;;;6.50;88.90;;;;;;4368939;27;20061;-79
2024/04/11 05:58:30;;;;;;;10.93;4.18;;;6.50;89.20;;;;;;4368854;27;20023;-79
2024/04/11 06:00:31;;;;;;;7.45;4.00;;;6.50;89.20;;;;;;4368500;27;20017;-79
2024/04/11 06:02:34;;;;;;;12.55;3.92;;;6.50;89.30;;;;;;4369747;27;20030;-78
2024/04/11 06:04:37;;;;;;;11.02;5.70;;;6.60;89.20;;;;;;4370500;27;20014;-78
2024/04/11 06:06:41;;;;;;;7.80;4.40;;;6.60;88.70;;;;;;4371234;27;20002;-79
2024/04/11 06:08:45;;;;;;;8.63;3.88;;;6.70;88.40;;;;;;4369580;27;20003;-79
2024/04/11 06:10:46;;;;;;;7.03;3.45;;;6.70;88.40;;;;;;4369040;27;20012;-79
2024/04/11 06:12:51;;;;;;;9.55;3.63;;;6.70;88.50;;;;;;4369988;27;20006;-79
2024/04/11 06:14:53;;;;;;;9.38;3.33;;;6.70;88.30;;;;;;4370073;27;20006;-78
2024/04/11 06:16:57;;;;;;;9.27;4.00;;;6.80;88.30;;;;;;4369784;27;20013;-79
2024/04/11 06:18:58;;;;;;;11.85;4.00;;;6.80;88.10;;;;;;4368737;27;20020;-78
2024/04/11 06:21:02;;;;;;;10.68;3.88;;;6.90;87.80;;;;;;4368617;27;20395;-79
2024/04/11 06:23:08;;;;;;;7.22;3.28;;;6.80;88.10;;;;;;4368549;27;19999;-78
2024/04/11 06:25:12;;;;;;;10.70;4.03;;;6.80;88.20;;;;;;4369292;27;20003;-81
2024/04/11 06:27:15;;;;;;;8.52;3.70;;;6.80;88.40;;;;;;4369476;27;20010;-80
2024/04/11 06:29:22;;;;;;;11.60;3.95;;;6.90;88.10;;;;;;4368839;27;20021;-79
2024/04/11 06:31:28;;;;;;;8.40;3.58;;;6.80;88.70;;;;;;4370023;27;20002;-80
2024/04/11 06:33:31;;;;;;;10.63;3.80;;;6.60;89.20;;;;;;4369984;27;20014;-79
2024/04/11 06:35:35;;;;;;;11.32;3.70;;;6.70;89.40;;;;;;4370367;27;20020;-79
2024/04/11 06:37:36;;;;;;;8.07;3.50;;;6.80;89.10;;;;;;4370322;27;19999;-80
2024/04/11 06:39:42;;;;;;;6.85;3.63;;;6.90;89.10;;;;;;4369263;27;20318;-79
2024/04/11 06:41:43;;;;;;;11.00;3.50;;;7.00;88.80;;;;;;4369114;27;20013;-79
2024/04/11 06:43:46;;;;;;;7.82;3.38;;;7.10;88.40;;;;;;4368601;27;19998;-78
2024/04/11 06:45:48;;;;;;;9.20;3.90;;;7.10;88.30;;;;;;4368100;27;19999;-78
2024/04/11 06:47:52;;;;;;;9.02;3.85;;;7.20;88.40;;;;;;4368111;27;20002;-76
2024/04/11 06:49:53;;;;;;;10.88;4.20;;;7.30;88.70;;;;;;4366712;27;20459;-79
2024/04/11 06:51:56;;;;;;;7.20;3.72;;;7.20;89.40;;;;;;4368393;27;20006;-79
2024/04/11 06:53:57;;;;;;;8.02;3.95;;;7.30;89.30;;;;;;4368217;27;20331;-79
2024/04/11 06:56:07;;;;;;;9.68;3.90;;;7.40;89.40;;;;;;4368142;27;20010;-78
2024/04/11 06:58:10;;;;;;;6.80;3.58;;;7.40;89.30;;;;;;4368247;27;19998;-79
2024/04/11 07:00:21;;;;;;;11.10;4.35;;;7.50;89.00;;;;;;4368143;27;20440;-79
2024/04/11 07:02:24;;;;;;;8.80;3.97;;;7.50;89.00;;;;;;4367824;27;20089;-78
2024/04/11 07:04:29;;;;;;;7.65;4.13;;;7.60;88.70;;;;;;4368140;27;20006;-78
2024/04/11 07:06:33;;;;;;;8.93;4.03;;;7.60;88.90;;;;;;4367744;27;20054;-79
2024/04/11 07:08:38;;;;;;;11.13;3.88;;;7.70;88.40;;;;;;4367948;27;20234;-77
2024/04/11 07:10:46;;;;;;;10.95;4.22;;;7.70;88.10;;;;;;4368005;27;20475;-79
2024/04/11 07:12:52;;;;;;;9.65;3.60;;;7.80;87.50;;;;;;4368008;27;20002;-79
2024/04/11 07:14:53;;;;;;;10.88;3.78;;;7.90;87.20;;;;;;4367865;27;20007;-79
2024/04/11 07:16:57;;;;;;;8.85;4.13;;;8.00;87.40;;;;;;4367892;27;20002;-79
2024/04/11 07:18:58;;;;;;;11.00;4.22;;;8.00;87.00;;;;;;4368075;27;20439;-79
2024/04/11 07:21:02;;;;;;;11.45;3.72;;;7.90;87.00;;;;;;4367940;27;20003;-79
2024/04/11 07:23:07;;;;;;;8.80;3.38;;;8.00;87.50;;;;;;4367479;27;20403;-78
2024/04/11 07:25:08;;;;;;;8.30;4.35;;;8.00;87.00;;;;;;4367509;27;20013;-79
2024/04/11 07:27:17;;;;;;;11.93;3.65;;;8.00;86.80;;;;;;4367747;27;20003;-79
2024/04/11 07:29:21;;;;;;;10.30;4.35;;;8.10;86.50;;;;;;4367830;27;20055;-78
2024/04/11 07:31:25;;;;;;;10.57;3.63;;;8.20;86.10;;;;;;4367965;27;20002;-78
2024/04/11 07:33:26;;;;;;;9.77;3.53;;;8.30;85.60;;;;;;4367733;27;20002;-79
2024/04/11 07:35:30;;;;;;;9.80;4.05;;;8.40;85.80;;;;;;4367875;27;20034;-79
2024/04/11 07:37:32;;;;;;;9.63;3.70;;;8.50;85.70;;;;;;4367654;27;20003;-80
2024/04/11 07:39:36;;;;;;;8.82;4.10;;;8.50;85.60;;;;;;4367744;27;20002;-79
2024/04/11 07:41:44;;;;;;;13.43;3.65;;;8.60;85.70;;;;;;4367692;27;20030;-79
2024/04/11 07:43:49;;;;;;;11.52;4.18;;;8.60;85.80;;;;;;4367946;27;20003;-79
2024/04/11 07:45:52;;;;;;;8.75;3.70;;;8.60;85.00;;;;;;4368126;27;20456;-77
2024/04/11 07:47:58;;;;;;;10.30;3.55;;;8.70;84.60;;;;;;4367338;27;20433;-77
2024/04/11 07:49:59;;;;;;;;;;;8.80;84.60;;;;;;4368244;27;20390;-77
2024/04/11 07:52:03;;;;;;;11.02;3.70;;;8.90;83.90;;;;;;4367506;27;19927;-78
2024/04/11 07:54:04;;;;;;;10.07;3.63;;;9.00;84.00;;;;;;4367336;27;20317;-77
2024/04/11 07:56:09;;;;;;;6.82;3.28;;;9.00;84.00;;;;;;4367442;27;20017;-79
2024/04/11 07:58:10;;;;;;;8.10;3.33;;;9.10;83.50;;;;;;4367712;27;20332;-81
2024/04/11 08:00:20;;;;;;;9.88;3.72;;;9.20;84.00;;;;;;4367563;27;20254;-80
2024/04/11 08:02:23;;;;;;;9.25;3.85;;;9.20;83.50;;;;;;4370067;27;20023;-78
2024/04/11 08:04:27;;;;;;;7.95;3.20;;;9.30;83.10;;;;;;4370338;27;20002;-80
2024/04/11 08:06:28;;;;;;;8.95;3.15;;;9.30;82.60;;;;;;4370123;27;20331;-78
2024/04/11 08:08:31;;;;;;;12.23;4.07;;;9.40;82.80;;;;;;4370183;27;20010;-79
2024/04/11 08:10:35;;;;;;;9.98;3.40;;;9.50;82.10;;;;;;4370221;27;20030;-78
2024/04/11 08:12:38;;;;;;;7.13;3.17;;;9.50;81.80;;;;;;4370096;27;20006;-80
2024/04/11 08:14:39;;;;;;;9.80;3.92;;;9.60;81.70;;;;;;4369860;27;20091;-79
2024/04/11 08:16:46;;;;;;;9.63;3.70;;;9.60;81.50;;;;;;4370143;27;20102;-80
2024/04/11 08:18:50;;;;;;;7.85;3.38;;;9.70;81.20;;;;;;4369927;27;20003;-79
2024/04/11 08:20:51;;;;;;;11.95;3.55;;;9.80;81.70;;;;;;4370075;27;20444;-79
2024/04/11 08:22:55;;;;;;;6.10;2.80;;;9.80;81.40;;;;;;4370049;27;20016;-79
2024/04/11 08:24:56;;;;;;;8.75;3.22;;;9.80;81.10;;;;;;4369974;27;20021;-81
2024/04/11 08:26:57;;;;;;;8.00;3.15;;;9.90;81.10;;;;;;4369750;27;20014;-80
2024/04/11 08:29:00;;;;;;;7.13;2.92;;;9.90;80.60;;;;;;4370015;27;20038;-79
2024/04/11 08:31:01;;;;;;;8.63;3.13;;;10.00;80.90;;;;;;4369773;27;20003;-79
2024/04/11 08:33:09;;;;;;;8.40;2.92;;;10.10;80.30;;;;;;4369837;27;20135;-81
2024/04/11 08:35:17;;;;;;;9.68;3.40;;;10.10;79.30;;;;;;4369798;27;20003;-80
2024/04/11 08:37:22;;;;;;;9.35;3.15;;;10.20;79.10;;;;;;4369790;27;20034;-79
2024/04/11 08:39:23;;;;;;;7.20;2.80;;;10.30;78.60;;;;;;4369642;27;20003;-81
2024/04/11 08:41:26;;;;;;;7.78;2.55;;;10.30;77.50;;;;;;4369731;27;20026;-81
2024/04/11 08:43:28;;;;;;;7.00;2.88;;;10.40;76.00;;;;;;4369726;27;20002;-80
2024/04/11 08:45:37;;;;;;;9.18;2.75;;;10.40;76.30;;;;;;4369804;27;20013;-80
2024/04/11 08:47:37;;;;;;;7.82;2.80;;;10.50;75.00;;;;;;4369271;27;20007;-80
2024/04/11 08:49:41;;;;;;;11.48;3.08;;;10.50;74.80;;;;;;4369375;27;20006;-78
2024/04/11 08:51:48;;;;;;;7.03;2.42;;;10.50;75.40;;;;;;4369377;27;20006;-80
2024/04/11 08:53:55;;;;;;;6.70;2.80;;;10.60;75.70;;;;;;4369312;27;20026;-80
2024/04/11 08:56:00;;;;;;;7.57;2.63;;;10.70;75.90;;;;;;4369440;27;20332;-80
2024/04/11 08:58:05;;;;;;;7.57;2.97;;;10.80;75.40;;;;;;4369663;27;20013;-80
2024/04/11 09:00:12;;;;;;;8.10;3.03;;;10.90;74.70;;;;;;4369018;27;20558;-79
2024/04/11 09:02:16;;;;;;;9.50;3.03;;;10.90;73.50;;;;;;4370285;27;20018;-79
2024/04/11 09:04:18;;;;;;;7.10;2.58;;;10.90;73.10;;;;;;4369406;27;20020;-79
2024/04/11 09:06:28;;;;;;;5.90;2.60;;;11.00;73.00;;;;;;4369481;27;20003;-78
2024/04/11 09:08:32;;;;;;;6.25;2.45;;;11.10;72.50;;;;;;4369756;27;20002;-80
2024/04/11 09:10:36;;;;;;;7.55;2.50;;;11.20;72.50;;;;;;4369490;27;20002;-80
2024/04/11 09:12:37;;;;;;;6.57;2.38;;;11.20;71.00;;;;;;4368414;27;20444;-81
2024/04/11 09:14:40;;;;;;;9.00;2.47;;;11.20;71.60;;;;;;4369558;27;20079;-79
2024/04/11 09:16:42;;;;;;;8.27;2.20;;;11.30;71.20;;;;;;4369031;27;20020;-78
2024/04/11 09:18:46;;;;;;;6.43;2.33;;;11.40;70.40;;;;;;4371238;27;20025;-80
2024/04/11 09:20:48;;;;;;;7.60;2.30;;;11.40;70.50;;;;;;4368759;27;20002;-80
2024/04/11 09:22:52;;;;;;;7.18;2.40;;;11.50;71.30;;;;;;4369173;27;20003;-79
2024/04/11 09:24:57;;;;;;;9.57;2.50;;;11.50;71.20;;;;;;4369213;27;20325;-79
2024/04/11 09:27:03;;;;;;;8.32;2.80;;;11.60;71.20;;;;;;4369276;27;20042;-78
2024/04/11 09:29:05;;;;;;;6.00;2.50;;;11.60;70.90;;;;;;4369354;27;20013;-79
2024/04/11 09:31:10;;;;;;;6.78;2.50;;;11.70;71.70;;;;;;4366373;27;20002;-77
2024/04/11 09:33:16;;;;;;;8.30;2.88;;;11.80;71.60;;;;;;4366951;27;20006;-79
2024/04/11 09:35:20;;;;;;;10.40;2.67;;;11.80;71.80;;;;;;4366972;27;20010;-79
2024/04/11 09:37:28;;;;;;;10.27;2.70;;;11.90;71.80;;;;;;4363820;27;20017;-80
2024/04/11 09:39:46;;;;;;;7.05;2.70;;;12.00;70.90;;;;;;4366953;27;20006;-80
2024/04/11 09:41:56;;;;;;;9.35;2.85;;;12.00;70.00;;;;;;4366988;27;20013;-79
2024/04/11 09:44:01;;;;;;;6.63;2.78;;;12.10;70.20;;;;;;4366624;27;20010;-80
2024/04/11 09:46:06;;;;;;;8.02;2.60;;;12.10;69.50;;;;;;4366949;27;20003;-80
2024/04/11 09:48:12;;;;;;;8.73;2.60;;;12.20;69.00;;;;;;4366648;27;20038;-79
2024/04/11 09:50:16;;;;;;;9.00;2.95;;;12.20;68.80;;;;;;4366783;27;20006;-79
2024/04/11 09:52:20;;;;;;;7.35;2.10;;;12.30;69.40;;;;;;4366550;27;20010;-80
2024/04/11 09:54:22;;;;;;;8.93;2.85;;;12.30;69.80;;;;;;4366175;27;20011;-79
2024/04/11 09:56:26;;;;;;;9.15;2.47;;;12.40;68.40;;;;;;4366766;27;20014;-79
2024/04/11 09:58:32;;;;;;;8.80;2.15;;;12.40;66.80;;;;;;4366203;27;20006;-79
2024/04/11 10:01:04;;;;;;;6.30;2.00;;;12.40;66.20;;;;;;4366244;27;20440;-79
2024/04/11 10:03:07;;;;;;;8.27;2.28;;;12.50;65.90;;;;;;4366420;27;20083;-79
2024/04/11 10:05:16;;;;;;;8.95;2.50;;;12.60;66.90;;;;;;4366179;27;20349;-79
2024/04/11 10:07:19;;;;;;;6.03;2.10;;;12.60;66.10;;;;;;4366297;27;20049;-78
2024/04/11 10:09:29;;;;;;;9.43;2.40;;;12.70;65.20;;;;;;4366338;27;20026;-79
2024/04/11 10:11:35;;;;;;;7.78;1.80;;;12.80;64.90;;;;;;4364092;27;20021;-79
2024/04/11 10:13:49;;;;;;;6.97;2.10;;;12.80;65.20;;;;;;4342095;27;20042;-80
2024/04/11 10:16:04;;;;;;;5.35;2.05;;;12.90;64.70;;;;;;4340438;27;20096;-78
2024/04/11 10:18:10;;;;;;;6.47;2.67;;;12.90;64.00;;;;;;4342752;27;20084;-78
2024/04/11 10:20:12;;;;;;;7.43;2.15;;;13.00;64.10;;;;;;4365662;27;20021;-79
2024/04/11 10:22:24;;;;;;;6.78;2.00;;;13.10;63.30;;;;;;4365592;27;20010;-79
2024/04/11 10:24:34;;;;;;;7.97;2.10;;;13.10;63.70;;;;;;4365825;27;20007;-81
2024/04/11 10:26:41;;;;;;;6.03;1.88;;;13.20;61.50;;;;;;4370062;27;20010;-79
2024/04/11 10:28:51;;;;;;;7.60;1.83;;;13.20;61.90;;;;;;4366557;27;20021;-79
2024/04/11 10:30:55;;;;;;;6.55;1.73;;;13.20;60.60;;;;;;4365547;27;20021;-78
2024/04/11 10:32:57;;;;;;;7.38;2.38;;;13.30;60.10;;;;;;4365796;27;20571;-80
2024/04/11 10:35:02;;;;;;;6.90;2.00;;;13.40;59.50;;;;;;4366292;27;20067;-80
2024/04/11 10:37:03;;;;;;;4.20;1.70;;;13.40;58.80;;;;;;4362710;27;20006;-79
2024/04/11 10:39:08;;;;;;;4.68;1.73;;;13.40;58.40;;;;;;4365180;27;20606;-79
2024/04/11 10:41:09;;;;;;;4.90;1.77;;;13.50;58.30;;;;;;4365854;27;20429;-78
2024/04/11 10:43:13;;;;;;;6.43;1.80;;;13.50;58.80;;;;;;4365041;27;20085;-78
2024/04/11 10:45:23;;;;;;;5.88;1.83;;;13.60;57.60;;;;;;4365270;27;20038;-79
2024/04/11 10:47:25;;;;;;;4.35;1.60;;;13.60;57.60;;;;;;4365408;27;20018;-80
2024/04/11 10:49:28;;;;;;;6.35;2.03;;;13.70;57.60;;;;;;4365028;27;20014;-79
2024/04/11 10:51:30;;;;;;;4.80;1.92;;;13.70;57.10;;;;;;4365175;27;20398;-79
2024/04/11 10:53:33;;;;;;;7.15;1.92;;;13.80;57.40;;;;;;4365447;27;20010;-78
2024/04/11 10:55:36;;;;;;;4.50;1.70;;;13.80;57.60;;;;;;4364824;27;20099;-79
2024/04/11 10:57:40;;;;;;;8.73;1.75;;;13.90;57.90;;;;;;4365296;27;20010;-78
2024/04/11 10:59:50;;;;;;;5.28;1.73;;;13.90;58.60;;;;;;4365088;27;20006;-78
2024/04/11 11:02:02;;;;;;;6.03;1.70;;;14.00;57.40;;;;;;4365184;27;20006;-80
2024/04/11 11:04:06;;;;;;;6.03;2.35;;;14.10;57.50;;;;;;4364776;27;20336;-80
2024/04/11 11:06:19;;;;;;;5.65;1.80;;;14.10;55.90;;;;;;4365516;27;20324;-80
2024/04/11 11:08:27;;;;;;;5.75;1.88;;;14.10;56.60;;;;;;4337833;27;20055;-79
2024/04/11 11:10:30;;;;;;;4.93;1.75;;;14.20;57.10;;;;;;4338016;27;20074;-81
2024/04/11 11:12:33;;;;;;;7.25;2.00;;;14.30;56.20;;;;;;4337751;27;20003;-81
2024/04/11 11:14:40;;;;;;;5.80;2.00;;;14.30;56.70;;;;;;4336236;27;20018;-80
2024/04/11 11:16:43;;;;;;;6.35;1.85;;;14.40;57.70;;;;;;4338057;27;20014;-79
2024/04/11 11:18:51;;;;;;;4.22;1.60;;;14.50;56.70;;;;;;4338501;27;20448;-80
2024/04/11 11:20:53;;;;;;;4.93;1.50;;;14.50;57.40;;;;;;4359248;27;20436;-79
2024/04/11 11:22:58;;;;;;;5.00;1.60;;;14.60;56.90;;;;;;4365364;27;20437;-81
2024/04/11 11:25:00;;;;;;;8.40;2.10;;;14.60;56.00;;;;;;4365467;27;20006;-81
2024/04/11 11:27:05;;;;;;;5.10;2.00;;;14.70;56.80;;;;;;4365350;27;20222;-82
2024/04/11 11:29:07;;;;;;;;;;;14.80;55.00;;;;;;4366080;27;20003;-81
2024/04/11 11:31:20;;;;;;;5.35;1.75;;;14.80;54.60;;;;;;4365227;27;19938;-79
2024/04/11 11:33:28;;;;;;;5.80;1.95;;;14.80;56.00;;;;;;4365794;27;20404;-79
2024/04/11 11:35:33;;;;;;;6.75;1.90;;;14.90;55.70;;;;;;4364784;27;20003;-79
2024/04/11 11:37:38;;;;;;;4.65;1.70;;;15.00;54.60;;;;;;4362763;27;20011;-78
2024/04/11 11:39:42;;;;;;;7.20;1.80;;;15.00;53.70;;;;;;4365441;27;20339;-82
2024/04/11 11:41:49;;;;;;;5.78;1.90;;;15.10;54.00;;;;;;4365035;27;20476;-80
2024/04/11 11:43:54;;;;;;;5.40;2.00;;;15.10;53.30;;;;;;4365073;27;20006;-78
2024/04/11 11:48:27;;;;;;;5.97;2.17;;;15.20;53.10;;;;;;4367115;27;20131;-78
2024/04/11 11:50:35;;;;;;;6.25;2.00;;;15.30;53.90;;;;;;4365431;27;20003;-78
2024/04/11 11:52:40;;;;;;;5.20;1.95;;;15.30;53.70;;;;;;4364907;27;20006;-82
2024/04/11 11:54:41;;;;;;;6.70;2.20;;;15.50;55.40;;;;;;4364951;27;20010;-82
2024/04/11 11:56:45;;;;;;;4.75;2.03;;;15.60;56.30;;;;;;4365177;27;20025;-83
2024/04/11 11:58:46;;;;;;;6.18;2.08;;;15.70;54.70;;;;;;4365226;27;20010;-86
2024/04/11 12:00:59;;;;;;;5.43;2.17;;;15.80;54.10;;;;;;4365085;27;20475;-83
2024/04/11 12:03:00;;;;;;;7.05;2.30;;;15.90;55.00;;;;;;4365099;27;20440;-83
2024/04/11 12:05:07;;;;;;;6.97;2.33;;;16.00;52.70;;;;;;4364881;27;20002;-82
2024/04/11 12:07:12;;;;;;;6.53;2.25;;;16.10;51.90;;;;;;4364639;27;20014;-82
2024/04/11 12:09:21;;;;;;;8.80;2.35;;;16.10;52.20;;;;;;4365316;27;20006;-82
2024/04/11 12:11:28;;;;;;;8.70;2.28;;;16.20;52.90;;;;;;4365071;27;20013;-82
2024/04/11 12:13:34;;;;;;;6.22;2.30;;;16.30;52.60;;;;;;4364936;27;20006;-83
2024/04/11 12:15:37;;;;;;;6.55;2.10;;;16.50;53.50;;;;;;4365338;27;20013;-82
2024/04/11 12:17:41;;;;;;;8.10;2.25;;;16.60;53.30;;;;;;4364815;27;20038;-82
2024/04/11 12:19:42;;;;;;;6.47;2.03;;;16.70;51.90;;;;;;4363920;27;20437;-83
2024/04/11 12:21:46;;;;;;;5.15;2.28;;;16.90;52.70;;;;;;4364578;27;20017;-79
2024/04/11 12:23:51;;;;;;;6.53;2.20;;;17.00;52.60;;;;;;4365620;27;20332;-81
2024/04/11 12:25:55;;;;;;;7.38;2.15;;;17.10;51.30;;;;;;4371150;27;20080;-80
2024/04/11 12:27:57;;;;;;;6.65;2.45;;;17.30;50.30;;;;;;4369539;27;20014;-79
2024/04/11 12:30:01;;;;;;;7.35;2.38;;;17.30;48.70;;;;;;4367929;27;20002;-81
2024/04/11 12:32:07;;;;;;;4.75;1.98;;;17.40;48.70;;;;;;4370576;27;20002;-82
2024/04/11 12:34:09;;;;;;;6.70;2.40;;;17.40;48.40;;;;;;4370528;27;20012;-80
2024/04/11 12:36:42;;;;;;;7.57;2.45;;;17.60;48.40;;;;;;4364012;27;20006;-80
2024/04/11 12:38:33;;;;;;;8.35;2.25;;;17.60;47.30;;;;;;4337055;27;20007;-79
2024/04/11 12:40:39;;;;;;;7.55;2.28;;;17.80;47.80;;;;;;4336568;27;20007;-79
2024/04/11 12:42:40;;;;;;;6.28;2.10;;;17.90;47.30;;;;;;4336563;27;20051;-79
2024/04/11 12:44:45;;;;;;;6.15;1.80;;;18.10;49.10;;;;;;4336750;27;20015;-79
2024/04/11 12:46:52;;;;;;;6.40;1.77;;;18.20;50.00;;;;;;4336689;27;20007;-77
2024/04/11 12:48:56;;;;;;;8.07;2.08;;;18.40;48.70;;;;;;4338462;27;20014;-78
2024/04/11 12:50:59;;;;;;;6.70;2.30;;;18.50;49.00;;;;;;4339569;27;20088;-78
2024/04/11 12:53:10;;;;;;;6.20;1.75;;;18.70;47.50;;;;;;4339510;27;20027;-81
2024/04/11 12:55:11;;;;;;;7.18;2.50;;;18.70;46.50;;;;;;4339503;27;20003;-78
2024/04/11 12:57:17;;;;;;;7.22;1.85;;;18.90;46.20;;;;;;4339440;27;20003;-78
2024/04/11 12:59:28;;;;;;;3.70;1.67;;;19.10;45.30;;;;;;4339423;27;19999;-78
2024/04/11 13:01:29;;;;;;;6.03;2.00;;;19.20;46.20;;;;;;4339489;27;20007;-78
2024/04/11 13:03:52;;;;;;;6.57;2.00;;;19.20;45.10;;;;;;4339312;27;20007;-78
2024/04/11 13:05:54;;;;;;;6.90;1.90;;;19.30;44.40;;;;;;4339481;27;20017;-79
2024/04/11 13:07:59;;;;;;;4.28;1.70;;;19.60;44.30;;;;;;4338638;27;20015;-78
2024/04/11 13:10:07;;;;;;;5.90;2.03;;;19.70;45.00;;;;;;4339321;27;20074;-78
2024/04/11 13:12:16;;;;;;;6.28;2.08;;;19.80;44.60;;;;;;4344098;27;20010;-80
2024/04/11 13:14:27;;;;;;;6.20;1.80;;;20.00;44.30;;;;;;4367070;27;20021;-79
2024/04/11 13:16:30;;;;;;;6.80;1.88;;;20.10;43.80;;;;;;4366783;27;20433;-79
2024/04/11 13:18:31;;;;;;;5.80;2.03;;;20.30;44.00;;;;;;4366735;27;20430;-78
2024/04/11 13:20:37;;;;;;;5.60;2.35;;;20.40;42.80;;;;;;4366845;27;20034;-79
2024/04/11 13:22:41;;;;;;;6.13;2.10;;;20.40;41.70;;;;;;4367102;27;20404;-78
2024/04/11 13:24:42;;;;;;;4.72;1.85;;;20.50;42.00;;;;;;4366861;27;20065;-78
2024/04/11 13:26:56;;;;;;;5.63;1.88;;;20.70;43.30;;;;;;4367069;27;20449;-78
2024/04/11 13:28:58;;;;;;;6.53;2.20;;;20.80;41.60;;;;;;4366801;27;20017;-78
2024/04/11 13:31:10;;;;;;;5.32;1.58;;;20.80;39.70;;;;;;4366596;27;20014;-77
2024/04/11 13:33:14;;;;;;;5.20;1.73;;;20.80;40.10;;;;;;4367303;27;20081;-77
2024/04/11 13:35:36;;;;;;;5.13;2.25;;;21.10;41.20;;;;;;4366649;27;20006;-77
2024/04/11 13:37:37;;;;;;;5.47;2.03;;;21.30;40.00;;;;;;4363630;27;20011;-77
2024/04/11 13:40:51;;;;;;;6.22;2.10;;;21.70;40.00;;;;;;4366944;27;20506;-77
2024/04/11 13:42:13;;;;;;;7.00;2.20;;;21.80;38.20;;;;;;4338829;27;20507;-77
2024/04/11 13:44:22;;;;;;;5.00;1.70;;;22.00;38.40;;;;;;4338632;27;20017;-78
2024/04/11 13:46:34;;;;;;;4.95;1.65;;;22.20;38.40;;;;;;4339206;27;20003;-78
2024/04/11 13:48:36;;;;;;;5.25;1.90;;;22.40;38.70;;;;;;4338752;27;20003;-78
2024/04/11 13:50:52;;;;;;;6.07;1.60;;;22.50;36.90;;;;;;4338811;27;20003;-78
2024/04/11 13:52:53;;;;;;;4.88;2.05;;;22.50;36.60;;;;;;4343414;27;20015;-79
2024/04/11 13:54:59;;;;;;;5.90;1.90;;;22.50;36.50;;;;;;4366109;27;20048;-79
2024/04/11 13:57:09;;;;;;;4.22;1.98;;;22.50;35.70;;;;;;4366821;27;20448;-79
2024/04/11 13:59:12;;;;;;;6.45;2.00;;;22.80;36.50;;;;;;4365842;27;20046;-80
2024/04/11 14:01:23;;;;;;;5.30;2.00;;;23.20;35.60;;;;;;4366051;27;20017;-80
2024/04/11 14:03:36;;;;;;;5.15;2.15;;;23.40;34.40;;;;;;4366362;27;20014;-81
2024/04/11 14:05:45;;;;;;;7.85;2.00;;;22.90;34.40;;;;;;4366709;27;20006;-82
2024/04/11 14:07:46;;;;;;;7.68;1.70;;;23.10;36.30;;;;;;4366483;27;20025;-82
2024/04/11 14:09:51;;;;;;;6.07;1.83;;;23.70;36.20;;;;;;4366507;27;20384;-82
2024/04/11 14:11:53;;;;;;;5.00;1.83;;;23.90;34.10;;;;;;4366458;27;20444;-82
2024/04/11 14:13:57;;;;;;;4.47;1.80;;;24.20;34.10;;;;;;4366505;27;20027;-81
2024/04/11 14:16:04;;;;;;;5.43;1.60;;;24.70;35.00;;;;;;4348410;27;20345;-82
2024/04/11 14:18:17;;;;;;;5.53;1.80;;;25.00;34.50;;;;;;4366092;27;20048;-78
2024/04/11 14:20:21;;;;;;;4.90;1.90;;;25.50;32.10;;;;;;4366345;27;20013;-77
2024/04/11 14:22:41;;;;;;;4.18;1.70;;;27.70;31.40;;;;;;4365735;27;20034;-79
2024/04/11 14:24:58;;;;;;;4.45;1.42;;;30.70;28.50;;;;;;4366084;27;20101;-81
2024/04/11 14:27:06;;;;;;;7.22;1.80;;;32.90;27.30;;;;;;4365149;27;20380;-81
2024/04/11 14:29:06;;;;;;;5.03;1.90;;;33.80;25.20;;;;;;4365889;27;20013;-81
2024/04/11 14:31:26;;;;;;;5.00;1.98;;;34.00;24.50;;;;;;4366126;27;20462;-82
2024/04/11 14:38:11;;;;;;;4.88;2.20;;;34.70;23.90;;;;;;4339150;27;20010;-78
2024/04/11 14:40:13;;;;;;;5.80;1.80;;;34.70;23.20;;;;;;4338231;27;20103;-82
2024/04/11 14:42:22;;;;;;;4.47;1.48;;;34.40;23.60;;;;;;4362044;27;20029;-79
2024/04/11 14:44:32;;;;;;;5.30;1.52;;;34.00;23.20;;;;;;4365935;27;20011;-80
2024/04/11 14:46:35;;;;;;;4.30;1.48;;;33.90;22.90;;;;;;4365059;27;20054;-80
2024/04/11 14:48:36;;;;;;;4.65;1.50;;;32.90;22.60;;;;;;4353758;27;20006;-79
2024/04/11 14:50:40;;;;;;;4.65;1.60;;;32.50;23.40;;;;;;4357888;27;20065;-75
2024/04/11 14:52:43;;;;;;;5.63;1.50;;;32.30;23.60;;;;;;4348681;27;20018;-76
2024/04/11 14:54:52;;;;;;;4.53;1.40;;;32.00;23.80;;;;;;4356060;27;20058;-77
2024/04/11 14:56:55;;;;;;;5.72;1.60;;;31.90;23.40;;;;;;4377702;27;20009;-77
2024/04/11 14:58:59;;;;;;;4.40;1.35;;;32.10;23.70;;;;;;4365606;27;20050;-79
2024/04/11 15:01:14;;;;;;;4.43;1.37;;;32.90;23.80;;;;;;4365459;27;20026;-77
2024/04/11 15:03:18;;;;;;;5.10;1.60;;;33.40;23.20;;;;;;4365674;27;20440;-77
2024/04/11 15:05:19;;;;;;;5.57;1.60;;;33.40;22.90;;;;;;4365673;27;20034;-81
2024/04/11 15:07:29;;;;;;;5.43;1.70;;;33.30;23.00;;;;;;4365158;27;20054;-78
2024/04/11 15:09:34;;;;;;;3.33;1.10;;;33.30;23.20;;;;;;4365561;27;20417;-78
2024/04/11 15:11:41;;;;;;;4.22;1.30;;;32.90;22.50;;;;;;4364482;27;20007;-78
2024/04/11 15:13:44;;;;;;;4.03;1.23;;;32.80;23.30;;;;;;4365657;27;20002;-80
2024/04/11 15:15:59;;;;;;;6.00;1.17;;;32.60;23.50;;;;;;4365773;27;20077;-79
2024/04/11 15:18:02;;;;;;;6.05;1.25;;;32.20;23.70;;;;;;4341174;27;19999;-79
2024/04/11 15:20:10;;;;;;;3.63;1.17;;;31.30;23.80;;;;;;4359076;27;20089;-76
2024/04/11 15:22:11;;;;;;;5.32;1.30;;;30.50;23.90;;;;;;4351356;27;20294;-76
2024/04/11 15:24:18;;;;;;;4.28;1.25;;;29.80;24.70;;;;;;4365209;27;20038;-75
2024/04/11 15:26:27;;;;;;;4.50;1.30;;;29.30;25.00;;;;;;4364604;27;20034;-78
2024/04/11 15:28:31;;;;;;;4.63;1.27;;;28.80;26.00;;;;;;4365432;27;20007;-78
2024/04/11 15:30:49;;;;;;;6.82;1.60;;;28.50;26.50;;;;;;4364976;27;20088;-78
2024/04/11 15:32:56;;;;;;;5.10;1.40;;;27.90;25.70;;;;;;4365336;27;20017;-77
2024/04/11 15:35:07;;;;;;;4.95;1.30;;;27.20;26.80;;;;;;4365593;27;20554;-77
2024/04/11 15:37:27;;;;;;;4.35;1.23;;;26.90;27.60;;;;;;4339652;27;20030;-78
2024/04/11 15:39:31;;;;;;;6.78;1.50;;;26.60;27.50;;;;;;4337747;27;19999;-79
2024/04/11 15:41:39;;;;;;;5.60;1.35;;;26.30;27.90;;;;;;4337563;27;20018;-78
2024/04/11 15:43:49;;;;;;;4.22;1.30;;;26.10;28.40;;;;;;4337093;27;20015;-78
2024/04/11 15:45:57;;;;;;;4.65;1.52;;;25.90;28.20;;;;;;4338095;27;20014;-79
2024/04/11 15:48:01;;;;;;;4.85;1.27;;;25.40;28.30;;;;;;4354012;27;20018;-77
2024/04/11 15:50:05;;;;;;;4.70;1.40;;;25.10;28.70;;;;;;4365427;27;20110;-76
2024/04/11 15:52:09;;;;;;;4.75;1.30;;;24.60;28.60;;;;;;4358362;27;20011;-77
2024/04/11 15:54:16;;;;;;;4.63;1.48;;;24.30;29.20;;;;;;4341956;27;20022;-76
2024/04/11 15:56:34;;;;;;;5.75;1.33;;;24.00;29.80;;;;;;4337189;27;20081;-77
2024/04/11 15:58:37;;;;;;;4.78;1.15;;;23.90;30.30;;;;;;4350899;27;20038;-76
2024/04/11 16:00:41;;;;;;;5.07;1.20;;;23.90;30.20;;;;;;4360549;27;20011;-76